Time;durP1;ratioP1;P1;durP2;ratioP2;P2;SDS_P1;SDS_P2;PMS_P1;PMS_P2;Temp;Humidity;BMP_temperature;BMP_pressure;BME280_temperature;BME280_humidity;BME280_pressure;Samples;Min_cycle;Max_cycle;Signal;HPM_P1;HPM_P2
2022/04/09 00:02:11;;;;;;;4.63;4.22;;;0.70;99.90;;;;;;5022936;28;20029;-70
2022/04/09 00:04:37;;;;;;;4.43;4.03;;;0.70;99.90;;;;;;5022921;28;20022;-69
2022/04/09 00:07:03;;;;;;;4.43;4.07;;;0.70;99.90;;;;;;5021992;28;20451;-70
2022/04/09 00:09:28;;;;;;;6.13;5.53;;;0.90;99.90;;;;;;5020023;28;20079;-69
2022/04/09 00:11:54;;;;;;;5.65;5.13;;;0.90;99.90;;;;;;5013206;28;20021;-70
2022/04/09 00:14:20;;;;;;;5.93;5.43;;;1.00;99.90;;;;;;5020256;28;20071;-70
2022/04/09 00:16:45;;;;;;;9.38;7.50;;;0.90;99.90;;;;;;5011736;28;20107;-70
2022/04/09 00:19:11;;;;;;;8.70;7.68;;;0.80;99.90;;;;;;5016580;28;20376;-70
2022/04/09 00:21:36;;;;;;;9.75;7.78;;;0.80;99.90;;;;;;5023827;28;20068;-70
2022/04/09 00:24:02;;;;;;;7.65;6.95;;;0.80;99.90;;;;;;5014900;28;20030;-70
2022/04/09 00:26:28;;;;;;;6.93;6.22;;;0.80;99.90;;;;;;5021138;28;20025;-70
2022/04/09 00:28:53;;;;;;;10.23;9.20;;;0.80;99.90;;;;;;5025227;28;20391;-69
2022/04/09 00:31:19;;;;;;;7.63;6.93;;;0.80;99.90;;;;;;5014961;28;20096;-70
2022/04/09 00:33:44;;;;;;;8.50;7.68;;;0.90;99.90;;;;;;5020883;28;20414;-70
2022/04/09 00:36:10;;;;;;;9.30;8.40;;;0.90;99.90;;;;;;5019090;28;20491;-70
2022/04/09 00:38:36;;;;;;;9.35;8.43;;;0.80;99.90;;;;;;5015622;28;20108;-70
2022/04/09 00:41:01;;;;;;;8.57;7.70;;;0.80;99.90;;;;;;5022214;28;20037;-70
2022/04/09 00:43:27;;;;;;;9.75;8.77;;;0.80;99.90;;;;;;5021110;28;20449;-70
2022/04/09 00:45:52;;;;;;;9.50;8.60;;;0.80;99.90;;;;;;5013015;28;20061;-70
2022/04/09 00:48:22;;;;;;;10.77;9.70;;;0.80;99.90;;;;;;5023571;28;20032;-71
2022/04/09 00:50:48;;;;;;;7.82;7.13;;;0.80;99.90;;;;;;5018290;28;20025;-71
2022/04/09 00:53:20;;;;;;;10.68;9.57;;;0.90;99.90;;;;;;5022639;28;20027;-70
2022/04/09 00:58:33;;;;;;;9.20;8.30;;;1.00;99.90;;;;;;5023604;28;20029;-71
2022/04/09 01:01:01;;;;;;;12.07;10.77;;;1.00;99.90;;;;;;5020850;28;20097;-70
2022/04/09 01:03:28;;;;;;;10.35;9.30;;;1.00;99.90;;;;;;5026344;28;20026;-71
2022/04/09 01:05:54;;;;;;;11.95;10.73;;;1.00;99.90;;;;;;5002358;28;20502;-71
2022/04/09 01:08:20;;;;;;;9.40;8.07;;;1.00;99.90;;;;;;5018110;28;20033;-71
2022/04/09 01:10:47;;;;;;;11.40;10.25;;;1.00;99.90;;;;;;5004767;28;20554;-70
2022/04/09 01:13:13;;;;;;;8.95;8.15;;;1.10;99.90;;;;;;5011705;28;20480;-70
2022/04/09 01:15:39;;;;;;;9.45;8.55;;;1.10;99.90;;;;;;5011929;28;20022;-70
2022/04/09 01:18:04;;;;;;;24.45;20.25;;;1.00;99.90;;;;;;5011803;28;20029;-71
2022/04/09 01:20:30;;;;;;;15.57;12.43;;;1.10;99.90;;;;;;4993986;28;20495;-70
2022/04/09 01:22:55;;;;;;;10.60;9.55;;;0.90;99.90;;;;;;5001516;28;20574;-71
2022/04/09 01:25:21;;;;;;;14.73;12.57;;;0.90;99.90;;;;;;5002070;28;20505;-70
2022/04/09 01:27:48;;;;;;;12.75;11.45;;;0.90;99.90;;;;;;4985077;28;20476;-71
2022/04/09 01:30:14;;;;;;;10.40;9.40;;;0.90;99.90;;;;;;4997958;28;20044;-71
2022/04/09 01:32:39;;;;;;;10.43;9.35;;;1.00;99.90;;;;;;4998066;28;20022;-70
2022/04/09 01:35:11;;;;;;;10.50;9.45;;;1.00;99.90;;;;;;5008555;28;20029;-72
2022/04/09 01:37:37;;;;;;;11.15;9.95;;;1.10;99.90;;;;;;4996071;28;20026;-71
2022/04/09 01:40:03;;;;;;;13.60;12.05;;;1.20;99.90;;;;;;5003899;28;20034;-71
2022/04/09 01:42:29;;;;;;;11.68;10.48;;;1.10;99.90;;;;;;5015188;28;20030;-71
2022/04/09 01:44:55;;;;;;;12.07;10.82;;;1.20;99.90;;;;;;5027969;22;20052;-72
2022/04/09 01:47:20;;;;;;;12.02;10.30;;;1.10;99.90;;;;;;5025265;28;20021;-71
2022/04/09 01:49:46;;;;;;;14.85;12.02;;;1.10;99.90;;;;;;5028853;28;20398;-70
2022/04/09 01:52:12;;;;;;;11.13;9.93;;;1.10;99.90;;;;;;5019999;28;20172;-71
2022/04/09 01:54:38;;;;;;;12.95;10.95;;;1.10;99.90;;;;;;5000546;28;20556;-70
2022/04/09 01:57:03;;;;;;;13.75;12.20;;;1.20;99.90;;;;;;5000665;28;20042;-70
2022/04/09 01:59:29;;;;;;;20.65;14.30;;;1.10;99.90;;;;;;5000756;28;20109;-71
2022/04/09 02:01:54;;;;;;;18.95;14.77;;;0.90;99.90;;;;;;4995288;28;20026;-70
2022/04/09 02:04:20;;;;;;;12.15;10.95;;;0.90;99.90;;;;;;4995204;28;20041;-70
2022/04/09 02:06:46;;;;;;;16.30;12.85;;;0.90;99.90;;;;;;5008968;28;20029;-71
2022/04/09 02:09:11;;;;;;;18.08;13.77;;;1.00;99.90;;;;;;5014959;28;20048;-70
2022/04/09 02:11:39;;;;;;;20.67;15.07;;;1.00;99.90;;;;;;5006136;28;20032;-71
2022/04/09 02:14:07;;;;;;;17.90;13.38;;;0.90;99.90;;;;;;4995261;28;20476;-71
2022/04/09 02:16:33;;;;;;;18.58;14.07;;;1.00;99.90;;;;;;4995142;28;20427;-71
2022/04/09 02:18:59;;;;;;;18.15;13.75;;;0.90;99.90;;;;;;4995196;28;20031;-71
2022/04/09 02:21:25;;;;;;;11.45;10.25;;;0.90;99.90;;;;;;4993798;28;20030;-71
2022/04/09 02:23:50;;;;;;;19.67;15.05;;;0.90;99.90;;;;;;5003053;28;20022;-70
2022/04/09 02:26:16;;;;;;;29.60;22.05;;;0.80;99.90;;;;;;4999275;28;20085;-71
2022/04/09 02:28:41;;;;;;;16.42;14.10;;;0.90;99.90;;;;;;4995023;28;20030;-70
2022/04/09 02:31:07;;;;;;;15.15;13.65;;;0.90;99.90;;;;;;4994731;28;20387;-71
2022/04/09 02:33:32;;;;;;;21.58;15.60;;;1.00;99.90;;;;;;4993495;28;20519;-70
2022/04/09 02:35:58;;;;;;;22.30;16.23;;;1.00;99.90;;;;;;4994831;28;20073;-69
2022/04/09 02:38:24;;;;;;;27.23;17.45;;;1.00;99.90;;;;;;4989933;28;20089;-71
2022/04/09 02:40:50;;;;;;;12.98;11.68;;;0.80;99.90;;;;;;4999472;28;20021;-71
2022/04/09 02:43:15;;;;;;;13.60;12.20;;;1.00;99.90;;;;;;5006575;28;20030;-70
2022/04/09 02:45:41;;;;;;;17.80;14.52;;;1.10;99.90;;;;;;4993417;28;20510;-71
2022/04/09 02:48:07;;;;;;;12.82;11.48;;;1.10;99.90;;;;;;4993932;28;20034;-71
2022/04/09 02:50:32;;;;;;;13.07;11.73;;;1.10;99.90;;;;;;4994295;28;20392;-70
2022/04/09 02:52:58;;;;;;;18.73;16.80;;;1.10;99.90;;;;;;4993269;28;20117;-72
2022/04/09 02:55:23;;;;;;;13.00;11.80;;;1.10;99.90;;;;;;4994490;28;20038;-71
2022/04/09 02:57:50;;;;;;;12.40;11.20;;;1.10;99.90;;;;;;4994517;28;20022;-72
2022/04/09 03:00:16;;;;;;;15.98;13.82;;;1.20;99.90;;;;;;4994263;28;20030;-72
2022/04/09 03:02:42;;;;;;;12.52;11.23;;;1.20;99.90;;;;;;4993053;28;20120;-71
2022/04/09 03:05:08;;;;;;;15.93;14.32;;;1.20;99.90;;;;;;4993328;28;20060;-71
2022/04/09 03:07:34;;;;;;;18.75;17.05;;;1.30;99.90;;;;;;5013916;28;20444;-71
2022/04/09 03:10:00;;;;;;;14.20;12.80;;;1.30;99.90;;;;;;5013702;28;20113;-71
2022/04/09 03:12:25;;;;;;;18.95;17.00;;;1.30;99.90;;;;;;5000256;28;20045;-71
2022/04/09 03:14:51;;;;;;;16.77;14.13;;;1.30;99.90;;;;;;4994004;28;20022;-71
2022/04/09 03:17:16;;;;;;;13.07;11.75;;;1.30;99.90;;;;;;4993059;28;20499;-71
2022/04/09 03:19:42;;;;;;;16.13;13.88;;;1.30;99.90;;;;;;4993993;28;20023;-72
2022/04/09 03:22:08;;;;;;;15.43;13.48;;;1.30;99.90;;;;;;4993942;28;20030;-72
2022/04/09 03:24:33;;;;;;;18.00;13.18;;;1.20;99.90;;;;;;4993829;28;20029;-72
2022/04/09 03:26:59;;;;;;;14.20;12.70;;;1.20;99.90;;;;;;4992705;28;20023;-72
2022/04/09 03:29:24;;;;;;;21.75;18.42;;;1.30;99.90;;;;;;4993849;28;20503;-71
2022/04/09 03:31:50;;;;;;;18.13;16.00;;;1.30;99.90;;;;;;5012855;28;20033;-71
2022/04/09 03:34:15;;;;;;;20.67;18.60;;;1.20;99.90;;;;;;5013568;28;20026;-70
2022/04/09 03:36:42;;;;;;;22.88;20.20;;;1.30;99.90;;;;;;5003866;28;20022;-70
2022/04/09 03:39:08;;;;;;;25.30;20.08;;;1.30;99.90;;;;;;4999269;28;20069;-69
2022/04/09 03:41:33;;;;;;;21.55;19.02;;;1.30;99.90;;;;;;4993457;28;20447;-69
2022/04/09 03:43:59;;;;;;;27.40;21.58;;;1.30;99.90;;;;;;4993082;28;20447;-70
2022/04/09 03:46:24;;;;;;;21.75;19.08;;;1.30;99.90;;;;;;4993489;28;20381;-69
2022/04/09 03:48:50;;;;;;;19.00;17.02;;;1.20;99.90;;;;;;4993470;28;20031;-71
2022/04/09 03:51:15;;;;;;;19.17;17.25;;;1.20;99.90;;;;;;4993299;28;20030;-71
2022/04/09 03:53:41;;;;;;;27.83;22.40;;;1.30;99.90;;;;;;4993267;28;20018;-70
2022/04/09 03:56:06;;;;;;;28.45;22.25;;;1.30;99.90;;;;;;4993257;28;20057;-72
2022/04/09 03:58:32;;;;;;;26.92;22.63;;;1.10;99.90;;;;;;4993315;28;20037;-71
2022/04/09 04:00:57;;;;;;;27.10;22.77;;;1.10;99.90;;;;;;4992914;28;20030;-70
2022/04/09 04:03:25;;;;;;;29.70;25.50;;;1.10;99.90;;;;;;4992211;28;20053;-70
2022/04/09 04:05:51;;;;;;;30.00;24.33;;;1.00;99.90;;;;;;4998028;28;20075;-71
2022/04/09 04:08:17;;;;;;;30.42;24.92;;;1.00;99.90;;;;;;5012797;28;20022;-70
2022/04/09 04:10:42;;;;;;;25.25;22.30;;;1.00;99.90;;;;;;5011073;28;20077;-71
2022/04/09 04:13:08;;;;;;;25.77;22.48;;;1.10;99.90;;;;;;4993172;28;20417;-71
2022/04/09 04:15:34;;;;;;;31.63;24.58;;;1.20;99.90;;;;;;4993386;28;20052;-72
2022/04/09 04:17:59;;;;;;;30.50;25.63;;;1.20;99.90;;;;;;4992976;28;20420;-71
2022/04/09 04:20:25;;;;;;;30.23;24.38;;;1.10;99.90;;;;;;4992806;28;20034;-71
2022/04/09 04:22:54;;;;;;;28.50;24.75;;;1.10;99.90;;;;;;4992852;28;20055;-71
2022/04/09 04:25:20;;;;;;;31.83;25.15;;;1.10;99.90;;;;;;4993315;28;20026;-70
2022/04/09 04:27:49;;;;;;;32.17;25.55;;;1.10;99.90;;;;;;4991602;28;20041;-69
2022/04/09 04:30:15;;;;;;;31.65;25.55;;;1.10;99.90;;;;;;4992575;28;20080;-71
2022/04/09 04:32:42;;;;;;;31.70;26.90;;;1.10;99.90;;;;;;4992660;28;20034;-70
2022/04/09 04:35:08;;;;;;;31.80;26.10;;;1.10;99.90;;;;;;4992673;28;20022;-70
2022/04/09 04:37:44;;;;;;;31.48;25.67;;;1.10;99.90;;;;;;4992569;28;20060;-70
2022/04/09 04:40:11;;;;;;;27.10;23.80;;;1.10;99.90;;;;;;4992641;28;20037;-70
2022/04/09 04:42:36;;;;;;;36.20;27.92;;;1.10;99.90;;;;;;4992322;28;20084;-70
2022/04/09 04:45:04;;;;;;;31.75;27.58;;;1.10;99.90;;;;;;4992342;28;20038;-71
2022/04/09 04:47:30;;;;;;;28.77;24.67;;;1.10;99.90;;;;;;4991147;28;20030;-70
2022/04/09 04:49:55;;;;;;;34.17;27.48;;;1.10;99.90;;;;;;4992378;28;20491;-70
2022/04/09 04:52:21;;;;;;;30.08;25.40;;;1.20;99.90;;;;;;5005538;28;20022;-71
2022/04/09 04:54:46;;;;;;;30.23;25.02;;;1.20;99.90;;;;;;5000840;28;20030;-70
2022/04/09 04:57:12;;;;;;;31.85;26.70;;;1.20;99.90;;;;;;4998071;28;20031;-71
2022/04/09 04:59:38;;;;;;;31.55;25.55;;;1.20;99.90;;;;;;5004137;28;20022;-71
2022/04/09 05:02:03;;;;;;;29.50;26.40;;;1.30;99.90;;;;;;4993438;28;20029;-70
2022/04/09 05:04:29;;;;;;;29.25;24.45;;;1.20;99.90;;;;;;5003805;28;20034;-71
2022/04/09 05:06:55;;;;;;;37.42;29.52;;;1.20;99.90;;;;;;5005462;28;20029;-72
2022/04/09 05:09:21;;;;;;;31.40;25.77;;;1.20;99.90;;;;;;5000619;28;20041;-70
2022/04/09 05:11:47;;;;;;;36.03;27.17;;;1.20;99.90;;;;;;4996931;28;20026;-72
2022/04/09 05:14:12;;;;;;;37.25;28.95;;;1.20;99.90;;;;;;5000257;28;20022;-71
2022/04/09 05:16:38;;;;;;;32.40;27.20;;;1.10;99.90;;;;;;4998879;28;20033;-71
2022/04/09 05:19:04;;;;;;;42.60;29.42;;;1.20;99.90;;;;;;5003807;28;20023;-72
2022/04/09 05:21:30;;;;;;;36.40;27.55;;;1.20;99.90;;;;;;5004059;28;20373;-71
2022/04/09 05:23:55;;;;;;;29.10;25.70;;;1.20;99.90;;;;;;4990917;28;20030;-71
2022/04/09 05:26:21;;;;;;;34.55;26.92;;;1.30;99.90;;;;;;4992062;28;20030;-72
2022/04/09 05:28:52;;;;;;;35.63;27.08;;;1.40;99.90;;;;;;4990916;28;20098;-71
2022/04/09 05:31:18;;;;;;;37.20;29.55;;;1.30;99.90;;;;;;5007125;28;20045;-71
2022/04/09 05:33:43;;;;;;;41.15;31.95;;;1.30;99.90;;;;;;5002155;28;20475;-72
2022/04/09 05:36:09;;;;;;;46.47;37.35;;;1.30;99.90;;;;;;5003641;28;20387;-71
2022/04/09 05:38:34;;;;;;;59.60;43.58;;;1.20;99.90;;;;;;4991942;28;20085;-71
2022/04/09 05:41:00;;;;;;;40.78;30.65;;;1.20;99.90;;;;;;5004343;28;20607;-72
2022/04/09 05:43:25;;;;;;;45.22;38.03;;;1.20;99.90;;;;;;5003463;28;20038;-71
2022/04/09 05:45:51;;;;;;;40.70;31.75;;;1.30;99.90;;;;;;5004950;28;20096;-72
2022/04/09 05:48:16;;;;;;;38.65;31.25;;;1.50;99.90;;;;;;5011538;28;20025;-71
2022/04/09 05:50:42;;;;;;;36.75;31.15;;;1.60;99.90;;;;;;5011254;28;20061;-72
2022/04/09 05:53:07;;;;;;;33.85;28.23;;;1.60;99.90;;;;;;5010182;28;20394;-71
2022/04/09 05:55:33;;;;;;;33.97;27.40;;;1.50;99.90;;;;;;4996139;28;20019;-71
2022/04/09 05:57:59;;;;;;;31.40;26.30;;;1.60;99.90;;;;;;4991915;28;20130;-71
2022/04/09 06:00:25;;;;;;;34.47;25.77;;;1.60;99.90;;;;;;5004835;28;20030;-71
2022/04/09 06:02:51;;;;;;;32.78;26.90;;;1.70;99.90;;;;;;4991858;28;20093;-71
2022/04/09 06:05:16;;;;;;;30.88;25.50;;;1.90;99.90;;;;;;4995091;28;20026;-72
2022/04/09 06:07:42;;;;;;;31.90;24.73;;;1.80;99.90;;;;;;4993177;28;20041;-72
2022/04/09 06:10:10;;;;;;;31.25;24.15;;;1.80;99.90;;;;;;4995247;28;20415;-72
2022/04/09 06:12:36;;;;;;;30.33;23.30;;;1.90;99.90;;;;;;4996737;28;20096;-72
2022/04/09 06:15:03;;;;;;;28.80;24.75;;;1.80;99.90;;;;;;5012202;28;20105;-70
2022/04/09 06:17:28;;;;;;;35.80;29.25;;;1.80;99.90;;;;;;5003474;28;20476;-70
2022/04/09 06:19:54;;;;;;;29.90;24.25;;;1.90;99.90;;;;;;5000172;28;20026;-71
2022/04/09 06:22:20;;;;;;;29.25;24.10;;;1.90;99.90;;;;;;5003115;28;20033;-71
2022/04/09 06:24:45;;;;;;;48.08;39.10;;;2.00;99.90;;;;;;5001448;28;20092;-71
2022/04/09 06:27:11;;;;;;;52.97;41.33;;;2.10;99.90;;;;;;5007179;28;20034;-72
2022/04/09 06:29:37;;;;;;;50.88;46.00;;;2.00;99.90;;;;;;5001389;28;20018;-72
2022/04/09 06:32:03;;;;;;;64.13;58.17;;;1.90;99.90;;;;;;4996259;28;20475;-72
2022/04/09 06:34:28;;;;;;;47.25;42.33;;;1.90;99.90;;;;;;5010560;28;20045;-72
2022/04/09 06:36:54;;;;;;;180.45;162.70;;;2.00;99.90;;;;;;5007146;28;20029;-71
2022/04/09 06:39:20;;;;;;;475.30;431.90;;;2.00;99.90;;;;;;5010085;28;20033;-70
2022/04/09 06:41:48;;;;;;;49.17;44.28;;;2.10;99.90;;;;;;5002404;28;20098;-71
2022/04/09 06:44:14;;;;;;;149.55;138.07;;;2.00;99.90;;;;;;5008933;28;20542;-72
2022/04/09 06:46:43;;;;;;;34.50;29.50;;;2.10;99.90;;;;;;5006727;28;20034;-72
2022/04/09 06:49:17;;;;;;;40.28;35.90;;;2.10;99.90;;;;;;4995926;28;20022;-71
2022/04/09 06:51:44;;;;;;;25.10;21.95;;;2.20;99.90;;;;;;5012759;28;20090;-71
2022/04/09 06:54:10;;;;;;;30.63;25.10;;;2.20;99.90;;;;;;5014222;28;20018;-71
2022/04/09 06:56:37;;;;;;;35.50;23.67;;;2.30;99.90;;;;;;5014228;28;20081;-71
2022/04/09 06:59:06;;;;;;;38.88;33.00;;;2.40;99.90;;;;;;5014058;28;20026;-72
2022/04/09 07:01:31;;;;;;;34.67;26.88;;;2.40;99.90;;;;;;5005004;28;20026;-71
2022/04/09 07:03:57;;;;;;;29.08;22.55;;;2.30;99.90;;;;;;5004685;28;20558;-71
2022/04/09 07:06:23;;;;;;;27.20;22.38;;;2.20;99.90;;;;;;5004574;28;20033;-71
2022/04/09 07:08:49;;;;;;;26.73;22.05;;;2.30;99.90;;;;;;5013464;28;20026;-71
2022/04/09 07:11:15;;;;;;;26.33;21.83;;;2.30;99.90;;;;;;5008182;28;20026;-71
2022/04/09 07:13:40;;;;;;;33.25;23.17;;;2.10;99.90;;;;;;4994074;28;20033;-71
2022/04/09 07:16:06;;;;;;;29.17;22.38;;;2.20;99.90;;;;;;4994237;28;20396;-71
2022/04/09 07:18:32;;;;;;;26.48;22.73;;;2.30;99.90;;;;;;4993589;28;20088;-71
2022/04/09 07:20:58;;;;;;;28.95;25.80;;;2.40;99.90;;;;;;4993509;28;20027;-70
2022/04/09 07:23:23;;;;;;;29.17;25.33;;;2.30;99.90;;;;;;4997249;28;20033;-71
2022/04/09 07:25:49;;;;;;;32.17;27.00;;;2.30;99.90;;;;;;5013756;28;20499;-71
2022/04/09 07:28:14;;;;;;;32.40;24.10;;;2.40;99.90;;;;;;4995462;28;20170;-71
2022/04/09 07:30:42;;;;;;;31.20;27.88;;;2.50;99.90;;;;;;5002175;28;20029;-71
2022/04/09 07:33:07;;;;;;;32.38;26.58;;;2.50;99.90;;;;;;5000496;28;20101;-74
2022/04/09 07:35:35;;;;;;;32.92;28.83;;;2.50;99.90;;;;;;5004053;28;20053;-71
2022/04/09 07:38:01;;;;;;;35.85;26.67;;;2.80;99.90;;;;;;5007221;28;20425;-71
2022/04/09 07:40:28;;;;;;;32.58;27.75;;;2.90;99.90;;;;;;5002644;28;20037;-71
2022/04/09 07:42:54;;;;;;;28.15;24.90;;;3.20;99.90;;;;;;5000277;28;20435;-72
2022/04/09 07:45:21;;;;;;;34.83;25.77;;;3.20;99.90;;;;;;5013787;28;20038;-71
2022/04/09 07:47:51;;;;;;;38.55;30.15;;;3.20;99.90;;;;;;5012968;28;20061;-71
2022/04/09 07:50:16;;;;;;;43.47;37.67;;;3.10;99.90;;;;;;5009772;28;20116;-71
2022/04/09 07:52:42;;;;;;;35.47;31.63;;;3.20;99.90;;;;;;5000201;28;20121;-71
2022/04/09 07:55:11;;;;;;;30.25;23.67;;;3.30;99.90;;;;;;5002150;28;20094;-71
2022/04/09 07:57:40;;;;;;;26.00;21.35;;;3.40;99.90;;;;;;5000519;28;20101;-71
2022/04/09 08:00:06;;;;;;;29.55;21.73;;;3.40;99.90;;;;;;4999522;28;20026;-71
2022/04/09 08:02:33;;;;;;;23.55;18.20;;;3.30;99.90;;;;;;5002422;28;20023;-71
2022/04/09 08:04:58;;;;;;;28.05;18.52;;;3.30;99.90;;;;;;5001982;28;20027;-71
2022/04/09 08:07:24;;;;;;;23.30;17.90;;;3.00;99.90;;;;;;5007481;28;20026;-72
2022/04/09 08:09:49;;;;;;;25.90;18.02;;;2.90;99.90;;;;;;4988572;28;20039;-71
2022/04/09 08:12:15;;;;;;;21.95;18.55;;;2.90;99.90;;;;;;4999513;28;20455;-70
2022/04/09 08:14:41;;;;;;;23.38;17.05;;;3.20;99.90;;;;;;5001079;28;20018;-71
2022/04/09 08:17:08;;;;;;;20.92;16.20;;;3.10;99.90;;;;;;4996949;28;20033;-71
2022/04/09 08:19:37;;;;;;;20.92;16.05;;;3.20;99.90;;;;;;5011609;28;20036;-71
2022/04/09 08:22:04;;;;;;;24.80;16.65;;;3.10;99.90;;;;;;4993857;28;20109;-71
2022/04/09 08:24:30;;;;;;;22.92;16.45;;;3.10;99.90;;;;;;5004177;28;20037;-70
2022/04/09 08:26:55;;;;;;;23.08;16.20;;;3.10;99.90;;;;;;4999379;28;20029;-70
2022/04/09 08:29:21;;;;;;;27.88;19.77;;;3.20;99.90;;;;;;4999761;28;20034;-71
2022/04/09 08:31:47;;;;;;;22.30;16.13;;;3.20;99.90;;;;;;4992406;28;20322;-71
2022/04/09 08:34:18;;;;;;;25.70;16.00;;;3.10;99.90;;;;;;4992680;28;20045;-71
2022/04/09 08:36:44;;;;;;;19.17;15.45;;;3.20;99.90;;;;;;4992553;28;20026;-72
2022/04/09 08:39:11;;;;;;;22.05;14.93;;;3.30;99.90;;;;;;4992446;28;20034;-72
2022/04/09 08:41:38;;;;;;;24.02;16.23;;;3.30;99.90;;;;;;4994236;28;20029;-71
2022/04/09 08:44:04;;;;;;;21.77;15.55;;;3.20;99.90;;;;;;5003294;28;20026;-71
2022/04/09 08:46:30;;;;;;;19.27;14.52;;;3.40;99.90;;;;;;4995604;28;20361;-71
2022/04/09 08:48:58;;;;;;;27.98;15.57;;;3.40;99.90;;;;;;5002663;28;20084;-71
2022/04/09 08:51:24;;;;;;;19.35;12.80;;;3.30;99.90;;;;;;5003659;28;20026;-71
2022/04/09 08:53:50;;;;;;;18.30;13.85;;;3.30;99.90;;;;;;5001522;28;20029;-70
2022/04/09 08:56:18;;;;;;;23.88;15.63;;;3.30;99.90;;;;;;5000158;28;20025;-71
2022/04/09 08:58:44;;;;;;;20.35;13.20;;;3.20;99.90;;;;;;5004517;28;20473;-71
2022/04/09 09:01:09;;;;;;;19.20;13.10;;;3.10;99.90;;;;;;4992219;28;20041;-71
2022/04/09 09:03:35;;;;;;;17.83;12.43;;;3.00;99.90;;;;;;4995208;28;20552;-71
2022/04/09 09:06:02;;;;;;;17.65;12.10;;;3.20;99.90;;;;;;4999689;28;20030;-71
2022/04/09 09:08:43;;;;;;;17.75;11.93;;;3.40;99.90;;;;;;4998166;28;20541;-71
2022/04/09 09:11:08;;;;;;;17.02;11.55;;;3.40;99.90;;;;;;4988832;28;20488;-71
2022/04/09 09:13:54;;;;;;;18.30;12.77;;;3.40;99.90;;;;;;4988648;28;20125;-71
2022/04/09 09:16:25;;;;;;;19.33;12.00;;;3.20;99.90;;;;;;4992262;28;20073;-71
2022/04/09 09:18:52;;;;;;;19.38;11.80;;;3.30;99.90;;;;;;4992125;28;20053;-71
2022/04/09 09:21:23;;;;;;;18.02;11.55;;;3.20;99.90;;;;;;5004386;28;20030;-71
2022/04/09 09:23:54;;;;;;;15.63;11.82;;;3.50;99.90;;;;;;5010327;28;20022;-71
2022/04/09 09:26:25;;;;;;;19.98;11.20;;;3.70;99.90;;;;;;5010465;28;20424;-71
2022/04/09 09:28:55;;;;;;;18.70;10.65;;;3.50;99.90;;;;;;5011748;28;20037;-71
2022/04/09 09:31:42;;;;;;;15.32;10.48;;;3.40;99.90;;;;;;5011579;28;20026;-71
2022/04/09 09:34:21;;;;;;;15.50;10.02;;;3.40;99.90;;;;;;5010375;28;20026;-71
2022/04/09 09:36:48;;;;;;;16.35;10.70;;;3.40;99.90;;;;;;5010389;28;20368;-71
2022/04/09 09:39:20;;;;;;;15.15;11.05;;;3.50;99.90;;;;;;5011860;28;20072;-71
2022/04/09 09:41:55;;;;;;;15.27;10.48;;;3.70;99.90;;;;;;5011566;28;20456;-71
2022/04/09 09:44:23;;;;;;;15.15;10.73;;;3.90;99.90;;;;;;5012439;28;20050;-71
2022/04/09 09:46:51;;;;;;;16.42;11.55;;;4.30;99.90;;;;;;5005563;28;20034;-71
2022/04/09 09:49:18;;;;;;;16.95;10.80;;;4.20;99.90;;;;;;5001244;28;20030;-72
2022/04/09 09:52:00;;;;;;;19.30;10.95;;;4.10;99.90;;;;;;5005074;28;20101;-71
2022/04/09 09:54:26;;;;;;;13.50;8.95;;;4.40;99.90;;;;;;5008860;28;20026;-71
2022/04/09 09:56:51;;;;;;;13.82;9.40;;;4.10;99.90;;;;;;5007056;28;20025;-71
2022/04/09 09:59:17;;;;;;;15.60;10.57;;;4.10;99.90;;;;;;5002145;28;20049;-72
2022/04/09 10:01:47;;;;;;;16.90;9.65;;;4.00;99.90;;;;;;4999922;28;20089;-72
2022/04/09 10:04:12;;;;;;;15.70;9.98;;;3.80;99.90;;;;;;4992963;28;20039;-71
2022/04/09 10:06:41;;;;;;;15.27;8.70;;;3.80;99.90;;;;;;4989718;28;20211;-72
2022/04/09 10:09:07;;;;;;;13.38;8.25;;;3.60;99.90;;;;;;4995415;28;20370;-73
2022/04/09 10:11:36;;;;;;;13.73;8.73;;;3.70;99.90;;;;;;5001444;28;20018;-73
2022/04/09 10:14:02;;;;;;;15.88;8.10;;;3.60;99.90;;;;;;4991897;28;20030;-71
2022/04/09 10:16:33;;;;;;;12.30;6.85;;;3.60;99.90;;;;;;4993689;28;20400;-70
2022/04/09 10:19:00;;;;;;;11.02;7.35;;;3.60;99.90;;;;;;4991636;28;20034;-69
2022/04/09 10:21:28;;;;;;;10.50;7.68;;;3.70;99.90;;;;;;4993767;28;20018;-71
2022/04/09 10:23:59;;;;;;;15.15;7.95;;;3.90;99.90;;;;;;5002030;28;20014;-71
2022/04/09 10:26:26;;;;;;;11.02;7.45;;;3.90;99.90;;;;;;4994898;28;20496;-70
2022/04/09 10:29:02;;;;;;;11.57;7.40;;;4.00;99.90;;;;;;4993614;28;20031;-71
2022/04/09 10:31:28;;;;;;;12.50;7.07;;;4.30;99.90;;;;;;4997906;28;20063;-74
2022/04/09 10:33:58;;;;;;;11.43;6.88;;;4.80;99.90;;;;;;4995724;28;20023;-71
2022/04/09 10:36:45;;;;;;;7.75;6.20;;;5.00;99.90;;;;;;4994827;28;20037;-71
2022/04/09 10:39:22;;;;;;;11.32;5.85;;;5.20;99.90;;;;;;5007681;28;20108;-70
2022/04/09 10:41:53;;;;;;;10.30;5.57;;;5.50;99.90;;;;;;5014354;28;20116;-71
2022/04/09 10:44:44;;;;;;;10.60;5.63;;;5.60;99.90;;;;;;5013067;28;20064;-70
2022/04/09 10:47:13;;;;;;;9.57;5.22;;;5.90;99.90;;;;;;5001768;28;20472;-71
2022/04/09 10:49:38;;;;;;;9.50;4.60;;;5.80;99.90;;;;;;4998817;28;20464;-72
2022/04/09 10:52:16;;;;;;;9.98;4.78;;;5.20;99.90;;;;;;5014108;28;20022;-72
2022/04/09 10:55:10;;;;;;;8.10;4.90;;;5.00;99.90;;;;;;5006043;28;20036;-72
2022/04/09 10:57:44;;;;;;;8.50;4.20;;;5.00;99.90;;;;;;4997421;28;20025;-71
2022/04/09 11:00:26;;;;;;;13.75;4.70;;;5.20;99.90;;;;;;5014081;28;20025;-71
2022/04/09 11:03:29;;;;;;;8.90;4.82;;;5.40;99.90;;;;;;5007042;28;20019;-71
2022/04/09 11:06:32;;;;;;;9.57;4.55;;;5.60;99.90;;;;;;4960562;28;20042;-71
2022/04/09 11:08:58;;;;;;;9.48;4.30;;;5.40;99.90;;;;;;4993126;28;20033;-72
2022/04/09 11:11:27;;;;;;;9.82;4.25;;;5.40;99.90;;;;;;5000167;28;20022;-71
2022/04/09 11:13:53;;;;;;;9.40;4.25;;;5.80;99.90;;;;;;4994150;28;20010;-72
2022/04/09 11:16:20;;;;;;;8.77;4.07;;;5.80;99.90;;;;;;4994196;28;20049;-71
2022/04/09 11:18:47;;;;;;;8.93;3.72;;;5.60;99.90;;;;;;5007238;28;20015;-72
2022/04/09 11:21:13;;;;;;;14.13;7.15;;;5.50;99.90;;;;;;4996673;28;20021;-72
2022/04/09 11:23:38;;;;;;;8.10;3.90;;;5.60;99.90;;;;;;5005549;28;20049;-72
2022/04/09 11:26:04;;;;;;;7.60;3.80;;;5.40;99.90;;;;;;4992757;28;20054;-71
2022/04/09 11:28:38;;;;;;;7.90;4.07;;;5.30;99.90;;;;;;4992959;28;20080;-72
2022/04/09 11:31:05;;;;;;;5.40;3.50;;;5.90;99.90;;;;;;4993672;28;20027;-72
2022/04/09 11:33:31;;;;;;;9.23;3.90;;;6.00;99.90;;;;;;4993853;28;20050;-72
2022/04/09 11:35:58;;;;;;;8.05;3.80;;;5.90;99.90;;;;;;4992653;28;20511;-72
2022/04/09 11:38:27;;;;;;;8.30;3.67;;;6.20;99.90;;;;;;5013357;28;20022;-72
2022/04/09 11:40:54;;;;;;;8.90;4.03;;;6.40;99.90;;;;;;4999450;28;20035;-72
2022/04/09 11:43:21;;;;;;;8.38;4.30;;;6.50;99.90;;;;;;4993560;28;20030;-72
2022/04/09 11:45:47;;;;;;;7.45;3.92;;;6.60;99.90;;;;;;4993902;28;20037;-73
2022/04/09 11:48:25;;;;;;;10.18;4.47;;;6.40;99.90;;;;;;4993877;28;20394;-72
2022/04/09 11:50:52;;;;;;;7.47;3.50;;;6.40;99.90;;;;;;4993704;28;20023;-71
2022/04/09 11:53:22;;;;;;;9.85;3.67;;;6.80;99.90;;;;;;5001255;28;20049;-72
2022/04/09 11:55:56;;;;;;;11.23;3.97;;;6.70;99.90;;;;;;5013215;28;20046;-73
2022/04/09 11:58:30;;;;;;;8.05;3.47;;;6.50;99.90;;;;;;5013071;28;20112;-72
2022/04/09 12:00:57;;;;;;;9.32;3.90;;;7.00;99.90;;;;;;4994589;28;20034;-72
2022/04/09 12:03:22;;;;;;;5.88;3.45;;;6.70;99.90;;;;;;5003949;28;20025;-72
2022/04/09 12:05:51;;;;;;;8.65;3.42;;;7.20;99.90;;;;;;4999306;28;20109;-72
2022/04/09 12:08:24;;;;;;;7.35;3.45;;;7.00;99.90;;;;;;5012770;28;20029;-72
2022/04/09 12:10:54;;;;;;;8.02;3.90;;;6.90;99.90;;;;;;5011871;28;20108;-72
2022/04/09 12:13:26;;;;;;;7.78;3.65;;;6.70;99.90;;;;;;4993789;28;20043;-72
2022/04/09 12:15:52;;;;;;;7.35;3.60;;;7.10;99.90;;;;;;5012720;28;20026;-72
2022/04/09 12:18:27;;;;;;;6.55;3.03;;;7.40;99.90;;;;;;5012788;28;20122;-72
2022/04/09 12:20:52;;;;;;;6.63;3.23;;;7.20;99.90;;;;;;5012307;28;20038;-72
2022/04/09 12:23:29;;;;;;;7.80;2.33;;;7.30;99.90;;;;;;4996766;28;20130;-72
2022/04/09 12:25:54;;;;;;;5.40;2.72;;;7.60;99.90;;;;;;4992966;28;20054;-72
2022/04/09 12:28:25;;;;;;;4.45;2.05;;;8.40;99.90;;;;;;4996607;28;20061;-72
2022/04/09 12:30:53;;;;;;;7.03;2.55;;;8.80;99.90;;;;;;5001243;28;20089;-71
2022/04/09 12:33:19;;;;;;;5.30;2.03;;;8.30;99.90;;;;;;4992812;28;20027;-72
2022/04/09 12:35:46;;;;;;;6.88;2.35;;;8.00;99.90;;;;;;5004034;28;20022;-71
2022/04/09 12:38:28;;;;;;;6.82;2.42;;;7.50;99.90;;;;;;4994478;28;20109;-72
2022/04/09 12:40:59;;;;;;;5.65;2.15;;;7.80;99.90;;;;;;4992918;28;20473;-71
2022/04/09 12:43:32;;;;;;;4.95;2.35;;;7.70;99.90;;;;;;4999801;28;20150;-72
2022/04/09 12:46:05;;;;;;;7.53;2.58;;;7.40;99.90;;;;;;4997832;28;20096;-72
2022/04/09 12:48:39;;;;;;;8.15;2.88;;;8.20;99.90;;;;;;5001770;28;20396;-72